sensor_id;sensor_type;location;lat;lon;timestamp;temperature;humidity
73322;DHT22;61549;37.044;22.128;2022-07-29T00:00:09;29.50;41.20
73322;DHT22;61549;37.044;22.128;2022-07-29T00:02:36;29.40;40.80
73322;DHT22;61549;37.044;22.128;2022-07-29T00:05:02;29.30;40.30
73322;DHT22;61549;37.044;22.128;2022-07-29T00:07:28;29.30;40.80
73322;DHT22;61549;37.044;22.128;2022-07-29T00:09:54;29.30;40.70
73322;DHT22;61549;37.044;22.128;2022-07-29T00:12:22;29.20;39.70
73322;DHT22;61549;37.044;22.128;2022-07-29T00:14:48;29.20;39.40
73322;DHT22;61549;37.044;22.128;2022-07-29T00:17:13;29.20;40.30
73322;DHT22;61549;37.044;22.128;2022-07-29T00:19:39;29.30;39.90
73322;DHT22;61549;37.044;22.128;2022-07-29T00:22:05;29.20;38.50
73322;DHT22;61549;37.044;22.128;2022-07-29T00:24:31;29.20;38.70
73322;DHT22;61549;37.044;22.128;2022-07-29T00:26:57;29.10;38.20
73322;DHT22;61549;37.044;22.128;2022-07-29T00:29:23;29.10;38.20
73322;DHT22;61549;37.044;22.128;2022-07-29T00:31:49;29.00;38.80
73322;DHT22;61549;37.044;22.128;2022-07-29T00:34:14;28.90;38.10
73322;DHT22;61549;37.044;22.128;2022-07-29T00:37:00;28.90;38.00
73322;DHT22;61549;37.044;22.128;2022-07-29T00:39:26;28.80;37.30
73322;DHT22;61549;37.044;22.128;2022-07-29T00:41:52;28.80;38.00
73322;DHT22;61549;37.044;22.128;2022-07-29T00:44:17;28.80;37.80
73322;DHT22;61549;37.044;22.128;2022-07-29T00:46:43;28.80;38.00
73322;DHT22;61549;37.044;22.128;2022-07-29T00:49:09;28.80;37.20
73322;DHT22;61549;37.044;22.128;2022-07-29T00:51:38;28.70;36.30
73322;DHT22;61549;37.044;22.128;2022-07-29T00:54:05;28.70;37.00
73322;DHT22;61549;37.044;22.128;2022-07-29T00:56:32;28.70;36.80
73322;DHT22;61549;37.044;22.128;2022-07-29T00:58:58;28.70;37.90
73322;DHT22;61549;37.044;22.128;2022-07-29T01:01:24;28.70;37.90
73322;DHT22;61549;37.044;22.128;2022-07-29T01:03:50;28.60;37.90
73322;DHT22;61549;37.044;22.128;2022-07-29T01:06:19;28.60;36.60
73322;DHT22;61549;37.044;22.128;2022-07-29T01:08:46;28.60;37.60
73322;DHT22;61549;37.044;22.128;2022-07-29T01:11:14;28.60;38.20
73322;DHT22;61549;37.044;22.128;2022-07-29T01:13:40;28.60;38.80
73322;DHT22;61549;37.044;22.128;2022-07-29T01:16:22;28.50;38.60
73322;DHT22;61549;37.044;22.128;2022-07-29T01:18:56;28.50;39.80
73322;DHT22;61549;37.044;22.128;2022-07-29T01:21:55;28.50;40.50
73322;DHT22;61549;37.044;22.128;2022-07-29T01:24:59;28.50;41.10
73322;DHT22;61549;37.044;22.128;2022-07-29T01:30:22;28.40;45.00
73322;DHT22;61549;37.044;22.128;2022-07-29T01:32:59;28.40;45.90
73322;DHT22;61549;37.044;22.128;2022-07-29T01:35:26;28.40;45.90
73322;DHT22;61549;37.044;22.128;2022-07-29T01:38:23;28.30;45.70
73322;DHT22;61549;37.044;22.128;2022-07-29T01:41:01;28.30;45.70
73322;DHT22;61549;37.044;22.128;2022-07-29T01:43:44;28.30;46.30
73322;DHT22;61549;37.044;22.128;2022-07-29T01:46:15;28.30;46.70
73322;DHT22;61549;37.044;22.128;2022-07-29T01:48:50;28.40;47.50
73322;DHT22;61549;37.044;22.128;2022-07-29T01:51:21;28.40;47.60
73322;DHT22;61549;37.044;22.128;2022-07-29T01:56:32;28.30;47.90
73322;DHT22;61549;37.044;22.128;2022-07-29T01:58:59;28.30;48.20
73322;DHT22;61549;37.044;22.128;2022-07-29T02:01:27;28.30;48.50
73322;DHT22;61549;37.044;22.128;2022-07-29T02:03:55;28.20;48.60
73322;DHT22;61549;37.044;22.128;2022-07-29T02:06:22;28.20;49.00
73322;DHT22;61549;37.044;22.128;2022-07-29T02:08:50;28.20;49.30
73322;DHT22;61549;37.044;22.128;2022-07-29T02:11:17;28.10;49.20
73322;DHT22;61549;37.044;22.128;2022-07-29T02:13:43;28.10;49.50
73322;DHT22;61549;37.044;22.128;2022-07-29T02:16:10;28.10;49.60
73322;DHT22;61549;37.044;22.128;2022-07-29T02:18:40;28.10;48.70
73322;DHT22;61549;37.044;22.128;2022-07-29T02:21:07;28.10;48.80
73322;DHT22;61549;37.044;22.128;2022-07-29T02:23:35;28.00;47.90
73322;DHT22;61549;37.044;22.128;2022-07-29T02:26:02;28.00;47.30
73322;DHT22;61549;37.044;22.128;2022-07-29T02:28:29;28.00;46.10
73322;DHT22;61549;37.044;22.128;2022-07-29T02:30:59;27.90;44.80
73322;DHT22;61549;37.044;22.128;2022-07-29T02:33:26;28.00;44.10
73322;DHT22;61549;37.044;22.128;2022-07-29T02:35:54;28.00;43.90
73322;DHT22;61549;37.044;22.128;2022-07-29T02:38:21;27.90;43.40
73322;DHT22;61549;37.044;22.128;2022-07-29T02:41:26;28.00;44.20
73322;DHT22;61549;37.044;22.128;2022-07-29T02:43:58;28.00;43.40
73322;DHT22;61549;37.044;22.128;2022-07-29T02:46:32;27.90;43.40
73322;DHT22;61549;37.044;22.128;2022-07-29T02:51:54;27.80;42.60
73322;DHT22;61549;37.044;22.128;2022-07-29T02:54:45;27.80;43.80
73322;DHT22;61549;37.044;22.128;2022-07-29T02:57:20;27.70;43.00
73322;DHT22;61549;37.044;22.128;2022-07-29T02:59:51;27.60;42.80
73322;DHT22;61549;37.044;22.128;2022-07-29T03:02:18;27.60;43.10
73322;DHT22;61549;37.044;22.128;2022-07-29T03:04:46;27.50;43.10
73322;DHT22;61549;37.044;22.128;2022-07-29T03:07:15;27.40;43.10
73322;DHT22;61549;37.044;22.128;2022-07-29T03:09:44;27.40;43.10
73322;DHT22;61549;37.044;22.128;2022-07-29T03:12:11;27.40;42.80
73322;DHT22;61549;37.044;22.128;2022-07-29T03:14:37;27.30;41.00
73322;DHT22;61549;37.044;22.128;2022-07-29T03:17:04;27.30;41.10
73322;DHT22;61549;37.044;22.128;2022-07-29T03:19:31;27.30;41.00
73322;DHT22;61549;37.044;22.128;2022-07-29T03:21:58;27.20;40.90
73322;DHT22;61549;37.044;22.128;2022-07-29T03:24:28;27.20;41.30
73322;DHT22;61549;37.044;22.128;2022-07-29T03:26:55;27.30;41.60
73322;DHT22;61549;37.044;22.128;2022-07-29T03:29:21;27.30;41.90
73322;DHT22;61549;37.044;22.128;2022-07-29T03:31:47;27.20;41.50
73322;DHT22;61549;37.044;22.128;2022-07-29T03:34:13;27.20;42.50
73322;DHT22;61549;37.044;22.128;2022-07-29T03:36:39;27.20;43.00
73322;DHT22;61549;37.044;22.128;2022-07-29T03:39:05;27.10;43.50
73322;DHT22;61549;37.044;22.128;2022-07-29T03:41:32;27.10;43.90
73322;DHT22;61549;37.044;22.128;2022-07-29T03:44:00;27.10;44.30
73322;DHT22;61549;37.044;22.128;2022-07-29T03:46:26;27.10;44.50
73322;DHT22;61549;37.044;22.128;2022-07-29T03:48:57;27.10;45.10
73322;DHT22;61549;37.044;22.128;2022-07-29T03:51:25;27.10;45.50
73322;DHT22;61549;37.044;22.128;2022-07-29T03:53:51;27.10;45.50
73322;DHT22;61549;37.044;22.128;2022-07-29T03:56:21;27.10;45.30
73322;DHT22;61549;37.044;22.128;2022-07-29T03:58:50;27.10;45.50
73322;DHT22;61549;37.044;22.128;2022-07-29T04:01:17;27.10;45.80
73322;DHT22;61549;37.044;22.128;2022-07-29T04:03:44;27.10;45.80
73322;DHT22;61549;37.044;22.128;2022-07-29T04:06:14;27.10;45.80
73322;DHT22;61549;37.044;22.128;2022-07-29T04:08:40;27.10;45.90
73322;DHT22;61549;37.044;22.128;2022-07-29T04:11:06;27.10;46.00
73322;DHT22;61549;37.044;22.128;2022-07-29T04:13:32;27.20;46.20
73322;DHT22;61549;37.044;22.128;2022-07-29T04:15:58;27.20;46.50
73322;DHT22;61549;37.044;22.128;2022-07-29T04:18:24;27.20;47.00
73322;DHT22;61549;37.044;22.128;2022-07-29T04:20:50;27.30;47.10
73322;DHT22;61549;37.044;22.128;2022-07-29T04:23:16;27.30;46.90
73322;DHT22;61549;37.044;22.128;2022-07-29T04:25:42;27.20;47.10
73322;DHT22;61549;37.044;22.128;2022-07-29T04:28:09;27.20;46.90
73322;DHT22;61549;37.044;22.128;2022-07-29T04:30:36;27.20;47.30
73322;DHT22;61549;37.044;22.128;2022-07-29T04:33:04;27.30;47.80
73322;DHT22;61549;37.044;22.128;2022-07-29T04:35:34;27.30;48.00
73322;DHT22;61549;37.044;22.128;2022-07-29T04:38:00;27.30;48.10
73322;DHT22;61549;37.044;22.128;2022-07-29T04:40:26;27.30;48.40
73322;DHT22;61549;37.044;22.128;2022-07-29T04:42:51;27.30;48.00
73322;DHT22;61549;37.044;22.128;2022-07-29T04:45:17;27.30;48.60
73322;DHT22;61549;37.044;22.128;2022-07-29T04:47:43;27.30;49.40
73322;DHT22;61549;37.044;22.128;2022-07-29T04:50:10;27.40;49.90
73322;DHT22;61549;37.044;22.128;2022-07-29T04:52:35;27.40;50.60
73322;DHT22;61549;37.044;22.128;2022-07-29T04:55:03;27.40;50.20
73322;DHT22;61549;37.044;22.128;2022-07-29T04:57:29;27.40;49.70
73322;DHT22;61549;37.044;22.128;2022-07-29T04:59:55;27.40;49.60
73322;DHT22;61549;37.044;22.128;2022-07-29T05:02:21;27.50;49.90
73322;DHT22;61549;37.044;22.128;2022-07-29T05:04:47;27.50;50.40
73322;DHT22;61549;37.044;22.128;2022-07-29T05:07:13;27.60;51.20
73322;DHT22;61549;37.044;22.128;2022-07-29T05:09:39;27.70;51.70
73322;DHT22;61549;37.044;22.128;2022-07-29T05:12:06;27.70;48.30
73322;DHT22;61549;37.044;22.128;2022-07-29T05:14:32;27.80;48.20
73322;DHT22;61549;37.044;22.128;2022-07-29T05:16:58;27.90;49.80
73322;DHT22;61549;37.044;22.128;2022-07-29T05:19:24;27.90;49.80
73322;DHT22;61549;37.044;22.128;2022-07-29T05:21:50;28.00;49.10
73322;DHT22;61549;37.044;22.128;2022-07-29T05:24:16;28.10;49.70
73322;DHT22;61549;37.044;22.128;2022-07-29T05:26:42;28.20;46.20
73322;DHT22;61549;37.044;22.128;2022-07-29T05:29:08;28.20;44.90
73322;DHT22;61549;37.044;22.128;2022-07-29T05:31:34;28.40;46.10
73322;DHT22;61549;37.044;22.128;2022-07-29T05:34:00;28.50;44.70
73322;DHT22;61549;37.044;22.128;2022-07-29T05:36:26;28.60;43.20
73322;DHT22;61549;37.044;22.128;2022-07-29T05:38:52;28.60;42.30
73322;DHT22;61549;37.044;22.128;2022-07-29T05:41:20;28.60;42.60
73322;DHT22;61549;37.044;22.128;2022-07-29T05:43:46;28.80;42.90
73322;DHT22;61549;37.044;22.128;2022-07-29T05:46:12;28.70;42.50
73322;DHT22;61549;37.044;22.128;2022-07-29T05:48:39;28.90;43.70
73322;DHT22;61549;37.044;22.128;2022-07-29T05:51:05;29.00;44.00
73322;DHT22;61549;37.044;22.128;2022-07-29T05:53:31;29.10;44.80
73322;DHT22;61549;37.044;22.128;2022-07-29T05:55:57;29.20;45.10
73322;DHT22;61549;37.044;22.128;2022-07-29T05:58:23;29.30;45.00
73322;DHT22;61549;37.044;22.128;2022-07-29T06:00:48;29.40;45.30
73322;DHT22;61549;37.044;22.128;2022-07-29T06:03:14;29.50;44.90
73322;DHT22;61549;37.044;22.128;2022-07-29T06:05:41;29.50;45.70
73322;DHT22;61549;37.044;22.128;2022-07-29T06:08:07;29.50;45.90
73322;DHT22;61549;37.044;22.128;2022-07-29T06:10:36;29.70;46.30
73322;DHT22;61549;37.044;22.128;2022-07-29T06:13:02;29.80;46.30
73322;DHT22;61549;37.044;22.128;2022-07-29T06:15:28;29.90;46.20
73322;DHT22;61549;37.044;22.128;2022-07-29T06:17:54;30.00;46.30
73322;DHT22;61549;37.044;22.128;2022-07-29T06:20:19;30.30;47.10
73322;DHT22;61549;37.044;22.128;2022-07-29T06:22:46;30.50;47.00
73322;DHT22;61549;37.044;22.128;2022-07-29T06:25:11;30.60;47.30
73322;DHT22;61549;37.044;22.128;2022-07-29T06:27:37;30.60;49.70
73322;DHT22;61549;37.044;22.128;2022-07-29T06:30:04;30.70;50.40
73322;DHT22;61549;37.044;22.128;2022-07-29T06:32:33;30.80;51.30
73322;DHT22;61549;37.044;22.128;2022-07-29T06:34:59;30.90;52.60
73322;DHT22;61549;37.044;22.128;2022-07-29T06:37:24;31.10;52.40
73322;DHT22;61549;37.044;22.128;2022-07-29T06:39:50;31.40;51.80
73322;DHT22;61549;37.044;22.128;2022-07-29T06:42:45;31.60;51.30
73322;DHT22;61549;37.044;22.128;2022-07-29T06:45:11;31.70;50.70
73322;DHT22;61549;37.044;22.128;2022-07-29T06:47:37;31.70;50.80
73322;DHT22;61549;37.044;22.128;2022-07-29T06:50:04;31.90;50.00
73322;DHT22;61549;37.044;22.128;2022-07-29T06:52:30;32.10;49.70
73322;DHT22;61549;37.044;22.128;2022-07-29T06:54:56;32.30;48.90
73322;DHT22;61549;37.044;22.128;2022-07-29T06:57:22;32.30;48.90
73322;DHT22;61549;37.044;22.128;2022-07-29T06:59:48;32.40;49.00
73322;DHT22;61549;37.044;22.128;2022-07-29T07:02:14;32.40;48.90
73322;DHT22;61549;37.044;22.128;2022-07-29T07:04:40;32.50;49.60
73322;DHT22;61549;37.044;22.128;2022-07-29T07:07:05;32.50;49.40
73322;DHT22;61549;37.044;22.128;2022-07-29T07:09:31;32.50;49.40
73322;DHT22;61549;37.044;22.128;2022-07-29T07:11:57;32.30;50.80
73322;DHT22;61549;37.044;22.128;2022-07-29T07:14:24;32.20;51.30
73322;DHT22;61549;37.044;22.128;2022-07-29T07:16:52;32.20;51.10
73322;DHT22;61549;37.044;22.128;2022-07-29T07:19:17;31.90;52.50
73322;DHT22;61549;37.044;22.128;2022-07-29T07:21:44;31.80;52.50
73322;DHT22;61549;37.044;22.128;2022-07-29T07:24:10;31.90;51.70
73322;DHT22;61549;37.044;22.128;2022-07-29T07:26:36;31.70;51.20
73322;DHT22;61549;37.044;22.128;2022-07-29T07:29:02;31.80;51.00
73322;DHT22;61549;37.044;22.128;2022-07-29T07:31:28;31.80;50.40
73322;DHT22;61549;37.044;22.128;2022-07-29T07:33:54;31.70;49.70
73322;DHT22;61549;37.044;22.128;2022-07-29T07:36:20;31.90;49.70
73322;DHT22;61549;37.044;22.128;2022-07-29T07:38:45;31.90;52.00
73322;DHT22;61549;37.044;22.128;2022-07-29T07:41:11;31.80;52.00
73322;DHT22;61549;37.044;22.128;2022-07-29T07:43:37;31.70;50.50
73322;DHT22;61549;37.044;22.128;2022-07-29T07:46:03;31.60;50.60
73322;DHT22;61549;37.044;22.128;2022-07-29T07:48:29;31.70;49.40
73322;DHT22;61549;37.044;22.128;2022-07-29T07:50:55;31.70;48.80
73322;DHT22;61549;37.044;22.128;2022-07-29T07:53:21;31.80;48.10
73322;DHT22;61549;37.044;22.128;2022-07-29T07:55:47;32.00;48.10
73322;DHT22;61549;37.044;22.128;2022-07-29T07:58:13;32.20;45.70
73322;DHT22;61549;37.044;22.128;2022-07-29T08:00:39;32.40;45.80
73322;DHT22;61549;37.044;22.128;2022-07-29T08:03:05;32.60;44.90
73322;DHT22;61549;37.044;22.128;2022-07-29T08:05:31;32.70;43.50
73322;DHT22;61549;37.044;22.128;2022-07-29T08:07:57;32.70;43.60
73322;DHT22;61549;37.044;22.128;2022-07-29T08:10:22;32.90;44.50
73322;DHT22;61549;37.044;22.128;2022-07-29T08:13:08;33.00;41.90
73322;DHT22;61549;37.044;22.128;2022-07-29T08:15:35;33.10;40.80
73322;DHT22;61549;37.044;22.128;2022-07-29T08:18:01;33.10;40.50
73322;DHT22;61549;37.044;22.128;2022-07-29T08:20:27;33.20;40.60
73322;DHT22;61549;37.044;22.128;2022-07-29T08:22:53;33.20;39.70
73322;DHT22;61549;37.044;22.128;2022-07-29T08:25:19;33.40;40.80
73322;DHT22;61549;37.044;22.128;2022-07-29T08:27:49;33.50;41.00
73322;DHT22;61549;37.044;22.128;2022-07-29T08:30:15;33.50;39.40
73322;DHT22;61549;37.044;22.128;2022-07-29T08:32:40;33.40;38.80
73322;DHT22;61549;37.044;22.128;2022-07-29T08:35:07;33.50;40.30
73322;DHT22;61549;37.044;22.128;2022-07-29T08:37:32;33.50;39.00
73322;DHT22;61549;37.044;22.128;2022-07-29T08:39:58;33.70;37.80
73322;DHT22;61549;37.044;22.128;2022-07-29T08:42:24;33.60;36.50
73322;DHT22;61549;37.044;22.128;2022-07-29T08:44:50;33.70;36.50
73322;DHT22;61549;37.044;22.128;2022-07-29T08:47:17;33.70;37.00
73322;DHT22;61549;37.044;22.128;2022-07-29T08:49:43;33.60;37.60
73322;DHT22;61549;37.044;22.128;2022-07-29T08:52:11;33.60;37.30
73322;DHT22;61549;37.044;22.128;2022-07-29T08:54:39;33.60;37.30
73322;DHT22;61549;37.044;22.128;2022-07-29T08:57:05;33.60;35.80
73322;DHT22;61549;37.044;22.128;2022-07-29T08:59:33;33.50;33.30
73322;DHT22;61549;37.044;22.128;2022-07-29T09:02:00;33.70;34.70
73322;DHT22;61549;37.044;22.128;2022-07-29T09:04:34;33.80;35.30
73322;DHT22;61549;37.044;22.128;2022-07-29T09:07:04;33.70;37.10
73322;DHT22;61549;37.044;22.128;2022-07-29T09:09:30;33.60;37.90
73322;DHT22;61549;37.044;22.128;2022-07-29T09:11:56;33.70;37.60
73322;DHT22;61549;37.044;22.128;2022-07-29T09:14:24;33.80;37.60
73322;DHT22;61549;37.044;22.128;2022-07-29T09:16:54;33.90;36.70
73322;DHT22;61549;37.044;22.128;2022-07-29T09:19:37;33.90;37.80
73322;DHT22;61549;37.044;22.128;2022-07-29T09:22:06;33.90;38.40
73322;DHT22;61549;37.044;22.128;2022-07-29T09:24:46;33.80;38.60
73322;DHT22;61549;37.044;22.128;2022-07-29T09:27:25;33.80;39.90
73322;DHT22;61549;37.044;22.128;2022-07-29T09:30:09;33.70;40.10
73322;DHT22;61549;37.044;22.128;2022-07-29T09:32:56;33.70;38.60
73322;DHT22;61549;37.044;22.128;2022-07-29T09:35:25;33.80;39.40
73322;DHT22;61549;37.044;22.128;2022-07-29T09:37:51;33.80;39.50
73322;DHT22;61549;37.044;22.128;2022-07-29T09:40:19;33.80;39.80
73322;DHT22;61549;37.044;22.128;2022-07-29T09:42:46;33.80;39.50
73322;DHT22;61549;37.044;22.128;2022-07-29T09:45:13;34.00;39.90
73322;DHT22;61549;37.044;22.128;2022-07-29T09:47:51;34.00;39.70
73322;DHT22;61549;37.044;22.128;2022-07-29T09:50:17;34.00;39.40
73322;DHT22;61549;37.044;22.128;2022-07-29T09:52:50;34.00;39.90
73322;DHT22;61549;37.044;22.128;2022-07-29T09:55:17;34.00;38.70
73322;DHT22;61549;37.044;22.128;2022-07-29T09:57:44;33.80;39.90
73322;DHT22;61549;37.044;22.128;2022-07-29T10:00:12;33.80;39.30
73322;DHT22;61549;37.044;22.128;2022-07-29T10:02:40;33.70;39.70
73322;DHT22;61549;37.044;22.128;2022-07-29T10:05:17;33.70;40.50
73322;DHT22;61549;37.044;22.128;2022-07-29T10:07:52;33.70;42.10
73322;DHT22;61549;37.044;22.128;2022-07-29T10:10:23;33.70;41.40
73322;DHT22;61549;37.044;22.128;2022-07-29T10:12:52;33.80;41.70
73322;DHT22;61549;37.044;22.128;2022-07-29T10:15:18;33.80;40.40
73322;DHT22;61549;37.044;22.128;2022-07-29T10:17:45;34.10;39.50
73322;DHT22;61549;37.044;22.128;2022-07-29T10:20:11;34.10;37.60
73322;DHT22;61549;37.044;22.128;2022-07-29T10:22:38;34.00;39.60
73322;DHT22;61549;37.044;22.128;2022-07-29T10:25:04;33.80;40.70
73322;DHT22;61549;37.044;22.128;2022-07-29T10:27:30;33.80;42.60
73322;DHT22;61549;37.044;22.128;2022-07-29T10:29:56;33.80;44.30
73322;DHT22;61549;37.044;22.128;2022-07-29T10:35:29;33.60;45.50
73322;DHT22;61549;37.044;22.128;2022-07-29T10:38:08;33.70;43.90
73322;DHT22;61549;37.044;22.128;2022-07-29T10:41:01;33.70;44.80
73322;DHT22;61549;37.044;22.128;2022-07-29T10:43:51;33.60;46.20
73322;DHT22;61549;37.044;22.128;2022-07-29T10:46:19;33.70;46.50
73322;DHT22;61549;37.044;22.128;2022-07-29T10:49:08;34.00;44.40
73322;DHT22;61549;37.044;22.128;2022-07-29T10:54:39;34.00;45.00
73322;DHT22;61549;37.044;22.128;2022-07-29T11:07:28;34.50;43.10
73322;DHT22;61549;37.044;22.128;2022-07-29T11:15:05;34.50;43.30
73322;DHT22;61549;37.044;22.128;2022-07-29T11:20:41;34.30;42.10
73322;DHT22;61549;37.044;22.128;2022-07-29T11:23:20;34.30;43.80
73322;DHT22;61549;37.044;22.128;2022-07-29T11:29:01;34.60;43.20
73322;DHT22;61549;37.044;22.128;2022-07-29T11:34:22;34.00;43.90
73322;DHT22;61549;37.044;22.128;2022-07-29T11:39:37;34.10;43.70
73322;DHT22;61549;37.044;22.128;2022-07-29T11:47:26;33.90;43.40
73322;DHT22;61549;37.044;22.128;2022-07-29T11:49:53;33.70;43.90
73322;DHT22;61549;37.044;22.128;2022-07-29T11:52:20;33.90;43.30
73322;DHT22;61549;37.044;22.128;2022-07-29T11:54:50;33.90;43.40
73322;DHT22;61549;37.044;22.128;2022-07-29T11:57:18;34.00;43.10
73322;DHT22;61549;37.044;22.128;2022-07-29T11:59:45;34.00;43.40
73322;DHT22;61549;37.044;22.128;2022-07-29T12:02:13;34.00;43.20
73322;DHT22;61549;37.044;22.128;2022-07-29T12:04:53;34.20;43.80
73322;DHT22;61549;37.044;22.128;2022-07-29T12:07:27;34.30;42.60
73322;DHT22;61549;37.044;22.128;2022-07-29T12:09:54;34.40;42.80
73322;DHT22;61549;37.044;22.128;2022-07-29T12:12:20;34.40;41.80
73322;DHT22;61549;37.044;22.128;2022-07-29T12:14:46;34.30;42.00
73322;DHT22;61549;37.044;22.128;2022-07-29T12:19:53;34.70;40.20
73322;DHT22;61549;37.044;22.128;2022-07-29T12:22:33;34.80;39.50
73322;DHT22;61549;37.044;22.128;2022-07-29T12:25:07;34.90;36.80
73322;DHT22;61549;37.044;22.128;2022-07-29T12:27:35;34.90;39.40
73322;DHT22;61549;37.044;22.128;2022-07-29T12:30:05;34.80;38.50
73322;DHT22;61549;37.044;22.128;2022-07-29T12:32:35;34.80;38.50
73322;DHT22;61549;37.044;22.128;2022-07-29T12:35:09;34.80;39.20
73322;DHT22;61549;37.044;22.128;2022-07-29T12:37:37;34.90;39.00
73322;DHT22;61549;37.044;22.128;2022-07-29T12:40:05;34.80;38.10
73322;DHT22;61549;37.044;22.128;2022-07-29T12:42:31;34.90;39.80
73322;DHT22;61549;37.044;22.128;2022-07-29T12:44:57;35.00;39.40
73322;DHT22;61549;37.044;22.128;2022-07-29T12:47:23;35.10;40.60
73322;DHT22;61549;37.044;22.128;2022-07-29T12:49:50;35.10;39.10
73322;DHT22;61549;37.044;22.128;2022-07-29T12:54:49;35.10;39.70
73322;DHT22;61549;37.044;22.128;2022-07-29T12:57:15;35.00;39.80
73322;DHT22;61549;37.044;22.128;2022-07-29T12:59:41;34.80;40.40
73322;DHT22;61549;37.044;22.128;2022-07-29T13:02:21;34.80;41.60
73322;DHT22;61549;37.044;22.128;2022-07-29T13:04:58;34.90;40.80
73322;DHT22;61549;37.044;22.128;2022-07-29T13:07:26;34.90;41.10
73322;DHT22;61549;37.044;22.128;2022-07-29T13:09:52;34.90;41.00
73322;DHT22;61549;37.044;22.128;2022-07-29T13:12:19;35.00;41.40
73322;DHT22;61549;37.044;22.128;2022-07-29T13:14:47;34.70;41.40
73322;DHT22;61549;37.044;22.128;2022-07-29T13:17:21;34.60;42.40
73322;DHT22;61549;37.044;22.128;2022-07-29T13:20:05;34.70;42.10
73322;DHT22;61549;37.044;22.128;2022-07-29T13:22:31;34.80;42.00
73322;DHT22;61549;37.044;22.128;2022-07-29T13:24:59;34.80;42.40
73322;DHT22;61549;37.044;22.128;2022-07-29T13:27:30;34.80;42.40
73322;DHT22;61549;37.044;22.128;2022-07-29T13:30:00;34.60;42.60
73322;DHT22;61549;37.044;22.128;2022-07-29T13:32:27;34.60;42.00
73322;DHT22;61549;37.044;22.128;2022-07-29T13:34:54;34.60;41.90
73322;DHT22;61549;37.044;22.128;2022-07-29T13:37:20;34.60;41.80
73322;DHT22;61549;37.044;22.128;2022-07-29T13:39:46;34.50;41.50
73322;DHT22;61549;37.044;22.128;2022-07-29T13:42:13;34.60;42.10
73322;DHT22;61549;37.044;22.128;2022-07-29T13:44:39;34.60;41.10
73322;DHT22;61549;37.044;22.128;2022-07-29T13:47:09;34.40;41.20
73322;DHT22;61549;37.044;22.128;2022-07-29T13:49:35;34.20;41.80
73322;DHT22;61549;37.044;22.128;2022-07-29T13:52:01;34.30;42.20
73322;DHT22;61549;37.044;22.128;2022-07-29T13:54:30;34.40;42.60
73322;DHT22;61549;37.044;22.128;2022-07-29T13:56:56;34.50;42.00
73322;DHT22;61549;37.044;22.128;2022-07-29T13:59:21;34.50;41.90
73322;DHT22;61549;37.044;22.128;2022-07-29T14:01:47;34.60;40.90
73322;DHT22;61549;37.044;22.128;2022-07-29T14:04:13;34.60;40.60
73322;DHT22;61549;37.044;22.128;2022-07-29T14:06:39;34.60;41.00
73322;DHT22;61549;37.044;22.128;2022-07-29T14:09:05;34.50;41.90
73322;DHT22;61549;37.044;22.128;2022-07-29T14:11:36;34.60;42.10
73322;DHT22;61549;37.044;22.128;2022-07-29T14:14:04;34.50;41.80
73322;DHT22;61549;37.044;22.128;2022-07-29T14:16:30;34.20;41.70
73322;DHT22;61549;37.044;22.128;2022-07-29T14:18:56;33.90;42.60
73322;DHT22;61549;37.044;22.128;2022-07-29T14:21:21;33.70;42.60
73322;DHT22;61549;37.044;22.128;2022-07-29T14:23:47;34.00;41.60
73322;DHT22;61549;37.044;22.128;2022-07-29T14:26:13;33.90;41.70
73322;DHT22;61549;37.044;22.128;2022-07-29T14:28:39;33.90;41.70
73322;DHT22;61549;37.044;22.128;2022-07-29T14:31:05;33.90;41.00
73322;DHT22;61549;37.044;22.128;2022-07-29T14:33:31;34.00;41.80
73322;DHT22;61549;37.044;22.128;2022-07-29T14:35:57;34.00;41.90
73322;DHT22;61549;37.044;22.128;2022-07-29T14:38:22;34.00;43.40
73322;DHT22;61549;37.044;22.128;2022-07-29T14:40:49;34.20;42.70
73322;DHT22;61549;37.044;22.128;2022-07-29T14:43:15;34.20;41.00
73322;DHT22;61549;37.044;22.128;2022-07-29T14:45:41;34.00;41.10
73322;DHT22;61549;37.044;22.128;2022-07-29T14:48:07;34.10;41.10
73322;DHT22;61549;37.044;22.128;2022-07-29T14:50:33;34.20;41.00
73322;DHT22;61549;37.044;22.128;2022-07-29T14:53:00;34.20;41.10
73322;DHT22;61549;37.044;22.128;2022-07-29T14:55:26;34.30;41.70
73322;DHT22;61549;37.044;22.128;2022-07-29T14:57:52;34.40;41.50
73322;DHT22;61549;37.044;22.128;2022-07-29T15:00:19;34.10;41.80
73322;DHT22;61549;37.044;22.128;2022-07-29T15:02:46;34.10;42.30
73322;DHT22;61549;37.044;22.128;2022-07-29T15:05:12;34.20;42.60
73322;DHT22;61549;37.044;22.128;2022-07-29T15:07:39;34.20;42.40
73322;DHT22;61549;37.044;22.128;2022-07-29T15:10:05;34.30;38.80
73322;DHT22;61549;37.044;22.128;2022-07-29T15:12:32;34.40;39.80
73322;DHT22;61549;37.044;22.128;2022-07-29T15:14:58;34.60;40.60
73322;DHT22;61549;37.044;22.128;2022-07-29T15:17:24;34.80;39.40
73322;DHT22;61549;37.044;22.128;2022-07-29T15:19:50;34.50;39.50
73322;DHT22;61549;37.044;22.128;2022-07-29T15:22:16;34.50;40.20
73322;DHT22;61549;37.044;22.128;2022-07-29T15:24:42;34.60;40.30
73322;DHT22;61549;37.044;22.128;2022-07-29T15:27:10;34.70;40.70
73322;DHT22;61549;37.044;22.128;2022-07-29T15:29:40;34.80;40.40
73322;DHT22;61549;37.044;22.128;2022-07-29T15:32:07;34.90;40.60
73322;DHT22;61549;37.044;22.128;2022-07-29T15:34:33;34.70;40.50
73322;DHT22;61549;37.044;22.128;2022-07-29T15:36:59;34.50;39.20
73322;DHT22;61549;37.044;22.128;2022-07-29T15:39:26;34.60;39.70
73322;DHT22;61549;37.044;22.128;2022-07-29T15:41:52;34.80;40.10
73322;DHT22;61549;37.044;22.128;2022-07-29T15:44:18;34.80;39.90
73322;DHT22;61549;37.044;22.128;2022-07-29T15:46:45;34.80;38.90
73322;DHT22;61549;37.044;22.128;2022-07-29T15:49:29;34.80;38.40
73322;DHT22;61549;37.044;22.128;2022-07-29T15:52:03;34.90;38.70
73322;DHT22;61549;37.044;22.128;2022-07-29T15:54:32;34.90;38.60
73322;DHT22;61549;37.044;22.128;2022-07-29T15:56:59;34.70;38.50
73322;DHT22;61549;37.044;22.128;2022-07-29T15:59:25;34.60;39.10
73322;DHT22;61549;37.044;22.128;2022-07-29T16:01:51;34.50;40.30
73322;DHT22;61549;37.044;22.128;2022-07-29T16:04:17;34.50;39.90
73322;DHT22;61549;37.044;22.128;2022-07-29T16:06:45;34.60;40.50
73322;DHT22;61549;37.044;22.128;2022-07-29T16:09:11;34.60;40.30
73322;DHT22;61549;37.044;22.128;2022-07-29T16:11:37;34.60;40.90
73322;DHT22;61549;37.044;22.128;2022-07-29T16:14:03;34.40;41.80